Time;durP1;ratioP1;P1;durP2;ratioP2;P2;SDS_P1;SDS_P2;PMS_P1;PMS_P2;Temp;Humidity;BMP_temperature;BMP_pressure;BME280_temperature;BME280_humidity;BME280_pressure;Samples;Min_cycle;Max_cycle;Signal;HPM_P1;HPM_P2
2023/06/23 05:50:24;;;;;;;7.90;6.03;;;;;;;;;;10501655;28;20932;-81
2023/06/23 05:55:25;;;;;;;4.53;4.10;;;;;;;;;;10498245;28;20282;-81
2023/06/23 06:00:30;;;;;;;7.07;5.88;;;;;;;;;;10498143;28;20025;-82
2023/06/23 06:05:32;;;;;;;11.07;9.90;;;;;;;;;;10497401;28;20055;-82
2023/06/23 06:10:34;;;;;;;9.85;8.85;;;;;;;;;;10500632;28;20031;-82
2023/06/23 06:15:36;;;;;;;7.85;5.88;;;;;;;;;;10496496;28;20044;-82
2023/06/23 06:20:37;;;;;;;11.70;8.07;;;;;;;;;;10497806;28;20025;-82
2023/06/23 06:25:38;;;;;;;7.35;4.93;;;;;;;;;;10498220;28;20466;-82
2023/06/23 06:30:41;;;;;;;5.88;5.30;;;;;;;;;;10498375;28;20043;-82
2023/06/23 06:35:43;;;;;;;9.48;6.70;;;;;;;;;;10497869;28;20120;-79
2023/06/23 06:40:49;;;;;;;8.70;7.80;;;;;;;;;;10497655;28;20020;-81
2023/06/23 06:45:51;;;;;;;10.48;8.90;;;;;;;;;;10496589;28;20043;-81
2023/06/23 06:50:53;;;;;;;13.80;9.68;;;;;;;;;;10498275;28;20028;-81
2023/06/23 06:55:55;;;;;;;10.48;9.13;;;;;;;;;;10498689;28;20055;-81
2023/06/23 07:00:58;;;;;;;10.38;9.27;;;;;;;;;;10488002;28;20088;-81
2023/06/23 07:05:59;;;;;;;8.65;6.50;;;;;;;;;;10491805;28;20033;-80
2023/06/23 07:11:00;;;;;;;6.65;5.03;;;;;;;;;;10469881;28;20490;-80
2023/06/23 07:16:01;;;;;;;6.75;4.18;;;;;;;;;;10468299;28;20029;-80
2023/06/23 07:21:04;;;;;;;8.07;4.63;;;;;;;;;;10470056;28;20028;-80
2023/06/23 07:26:13;;;;;;;7.65;6.45;;;;;;;;;;10467680;28;20504;-80
2023/06/23 07:31:14;;;;;;;9.00;6.65;;;;;;;;;;10470236;28;20036;-80
2023/06/23 07:36:15;;;;;;;9.00;7.88;;;;;;;;;;10469891;28;20029;-79
2023/06/23 07:41:16;;;;;;;16.85;13.75;;;;;;;;;;10469568;28;20494;-79
2023/06/23 07:46:17;;;;;;;21.90;19.73;;;;;;;;;;10468780;28;20097;-80
2023/06/23 07:51:18;;;;;;;14.82;13.23;;;;;;;;;;10468097;28;20082;-79
2023/06/23 07:56:19;;;;;;;18.45;16.50;;;;;;;;;;10467629;28;20119;-79
2023/06/23 08:01:20;;;;;;;24.33;13.63;;;;;;;;;;10466012;28;20396;-78
2023/06/23 08:06:23;;;;;;;15.38;13.88;;;;;;;;;;10465413;28;20095;-80
2023/06/23 08:11:24;;;;;;;16.98;15.23;;;;;;;;;;10465385;28;20021;-79
2023/06/23 08:16:26;;;;;;;13.02;10.13;;;;;;;;;;10468542;28;20029;-79
2023/06/23 08:21:27;;;;;;;10.82;9.77;;;;;;;;;;10480734;28;20398;-80
2023/06/23 08:26:28;;;;;;;9.00;8.10;;;;;;;;;;10472384;28;20041;-78
2023/06/23 08:31:29;;;;;;;9.10;8.18;;;;;;;;;;10478546;28;20474;-78
2023/06/23 08:36:30;;;;;;;9.18;8.27;;;;;;;;;;10476960;28;20336;-81
2023/06/23 08:41:32;;;;;;;7.80;6.63;;;;;;;;;;10478343;28;20021;-81
2023/06/23 08:46:35;;;;;;;8.43;7.10;;;;;;;;;;10495293;28;20051;-79
2023/06/23 08:51:37;;;;;;;6.65;5.68;;;;;;;;;;10472295;28;20071;-81
2023/06/23 08:56:38;;;;;;;6.20;5.63;;;;;;;;;;10468071;28;20422;-82
2023/06/23 09:01:39;;;;;;;5.10;4.55;;;;;;;;;;10472561;28;20047;-82
2023/06/23 09:06:41;;;;;;;6.13;4.30;;;;;;;;;;10463867;28;20479;-78
2023/06/23 09:11:43;;;;;;;8.40;7.38;;;;;;;;;;10465146;28;20107;-80
2023/06/23 09:16:54;;;;;;;6.45;5.25;;;;;;;;;;10466411;28;20025;-80
2023/06/23 09:21:55;;;;;;;7.90;4.78;;;;;;;;;;10465202;28;20048;-80
2023/06/23 09:26:56;;;;;;;5.72;4.50;;;;;;;;;;10462157;28;20027;-79
2023/06/23 09:31:59;;;;;;;5.22;4.40;;;;;;;;;;10464073;28;20047;-79
2023/06/23 09:37:11;;;;;;;7.50;4.18;;;;;;;;;;10464012;28;20033;-82
2023/06/23 09:42:12;;;;;;;6.32;4.43;;;;;;;;;;10464444;28;20356;-80
2023/06/23 09:47:14;;;;;;;8.90;8.00;;;;;;;;;;10463113;28;20075;-80
2023/06/23 09:52:22;;;;;;;5.55;4.50;;;;;;;;;;10470433;28;20056;-80
2023/06/23 09:57:23;;;;;;;4.75;4.13;;;;;;;;;;10463774;28;20332;-81
2023/06/23 10:02:28;;;;;;;4.85;4.25;;;;;;;;;;10460224;28;20475;-81
2023/06/23 10:07:30;;;;;;;5.47;4.78;;;;;;;;;;10461399;28;20021;-80
2023/06/23 10:12:33;;;;;;;6.45;4.63;;;;;;;;;;10464379;28;20029;-79
2023/06/23 10:17:35;;;;;;;5.95;4.28;;;;;;;;;;10461182;28;20032;-79
2023/06/23 10:22:37;;;;;;;6.28;5.68;;;;;;;;;;10461744;28;20051;-80
2023/06/23 10:27:39;;;;;;;7.40;6.35;;;;;;;;;;10463806;28;20090;-80
2023/06/23 10:32:43;;;;;;;5.53;5.00;;;;;;;;;;10462292;28;20024;-80
2023/06/23 10:37:48;;;;;;;6.15;4.80;;;;;;;;;;10469438;28;20116;-80
2023/06/23 10:42:50;;;;;;;5.80;4.78;;;;;;;;;;10469509;28;20156;-80
2023/06/23 10:47:52;;;;;;;5.30;4.65;;;;;;;;;;10472612;28;20043;-79
2023/06/23 10:52:53;;;;;;;7.45;5.90;;;;;;;;;;10467952;28;20045;-79
2023/06/23 10:58:10;;;;;;;9.57;6.15;;;;;;;;;;10473292;28;20120;-79
2023/06/23 11:03:23;;;;;;;6.30;4.20;;;;;;;;;;10470298;28;20036;-80
2023/06/23 11:08:29;;;;;;;6.22;4.22;;;;;;;;;;10472475;28;20219;-80
2023/06/23 11:13:38;;;;;;;6.40;4.50;;;;;;;;;;10472164;28;20493;-81
2023/06/23 11:18:47;;;;;;;4.95;4.00;;;;;;;;;;10477483;28;20438;-82
2023/06/23 11:24:08;;;;;;;3.47;3.17;;;;;;;;;;10471993;28;20096;-81
2023/06/23 11:29:11;;;;;;;4.20;3.45;;;;;;;;;;10474313;28;20112;-83
2023/06/23 11:34:12;;;;;;;4.53;3.60;;;;;;;;;;10472247;28;20025;-81
2023/06/23 11:39:20;;;;;;;10.50;9.45;;;;;;;;;;10470931;28;20055;-83
2023/06/23 11:44:22;;;;;;;5.53;4.57;;;;;;;;;;10474089;28;20086;-82
2023/06/23 11:49:24;;;;;;;4.35;3.45;;;;;;;;;;10473631;28;20047;-82
2023/06/23 11:54:32;;;;;;;4.78;4.22;;;;;;;;;;10480203;28;20020;-81
2023/06/23 11:59:54;;;;;;;7.15;5.03;;;;;;;;;;10477211;28;20078;-80
2023/06/23 12:05:09;;;;;;;4.85;4.32;;;;;;;;;;10396771;22;20065;-87
2023/06/23 12:21:39;;;;;;;4.97;3.38;;;;;;;;;;10378457;28;20033;-87
2023/06/23 12:38:46;;;;;;;3.05;2.70;;;;;;;;;;10379915;28;20098;-88
2023/06/23 12:49:43;;;;;;;3.50;3.20;;;;;;;;;;10347336;28;20037;-87
2023/06/23 13:12:27;;;;;;;7.35;6.00;;;;;;;;;;10320593;28;20030;-86
2023/06/23 13:18:00;;;;;;;4.47;3.50;;;;;;;;;;10335390;28;20065;-88
2023/06/23 13:40:19;;;;;;;6.10;4.30;;;;;;;;;;10347754;28;20030;-87
2023/06/23 13:45:46;;;;;;;20.63;16.20;;;;;;;;;;10279632;28;20031;-87
2023/06/23 13:56:29;;;;;;;5.00;4.07;;;;;;;;;;10299084;28;20072;-85
2023/06/23 14:01:30;;;;;;;4.43;3.90;;;;;;;;;;10334864;28;20053;-83
2023/06/23 14:06:31;;;;;;;4.93;3.58;;;;;;;;;;10346939;28;20027;-84
2023/06/23 14:11:32;;;;;;;7.80;4.05;;;;;;;;;;10348978;28;20088;-86
2023/06/23 14:16:59;;;;;;;4.68;4.13;;;;;;;;;;10349396;28;20400;-85
2023/06/23 14:22:02;;;;;;;4.10;3.70;;;;;;;;;;10352769;28;20431;-85
2023/06/23 14:27:04;;;;;;;3.75;3.33;;;;;;;;;;10350914;28;20050;-86
2023/06/23 14:32:05;;;;;;;3.60;3.30;;;;;;;;;;10350068;28;20038;-85
2023/06/23 14:37:06;;;;;;;4.65;3.45;;;;;;;;;;10353053;28;20049;-85
2023/06/23 14:42:08;;;;;;;4.85;4.38;;;;;;;;;;10348086;28;20018;-85
2023/06/23 14:47:13;;;;;;;4.43;4.03;;;;;;;;;;10348293;28;20435;-85
2023/06/23 14:58:06;;;;;;;3.53;3.13;;;;;;;;;;10278678;28;20057;-85
2023/06/23 15:03:08;;;;;;;3.40;3.05;;;;;;;;;;10348454;28;20445;-85
2023/06/23 15:08:11;;;;;;;4.18;3.78;;;;;;;;;;10350467;28;20061;-85
2023/06/23 15:13:31;;;;;;;3.88;2.88;;;;;;;;;;10348844;28;20125;-86
2023/06/23 15:18:32;;;;;;;3.72;2.95;;;;;;;;;;10342313;28;20042;-85
2023/06/23 15:23:34;;;;;;;3.20;2.90;;;;;;;;;;10354826;28;20068;-85
2023/06/23 15:28:35;;;;;;;2.53;2.33;;;;;;;;;;10348555;28;20026;-85
2023/06/23 15:33:37;;;;;;;13.35;12.02;;;;;;;;;;10350057;28;20089;-85
2023/06/23 15:38:54;;;;;;;4.07;3.67;;;;;;;;;;10349996;28;20034;-86
2023/06/23 15:43:55;;;;;;;3.95;3.30;;;;;;;;;;10351065;28;20023;-85
2023/06/23 15:49:00;;;;;;;3.15;2.85;;;;;;;;;;10351683;28;20136;-85
2023/06/23 15:54:22;;;;;;;3.70;3.30;;;;;;;;;;10348584;28;20053;-87
2023/06/23 15:59:32;;;;;;;3.88;3.30;;;;;;;;;;10339615;28;20041;-86
2023/06/23 16:05:01;;;;;;;4.97;2.90;;;;;;;;;;10346069;28;20023;-86
2023/06/23 16:10:25;;;;;;;4.50;4.10;;;;;;;;;;10351384;28;20057;-83
2023/06/23 16:15:39;;;;;;;5.82;3.85;;;;;;;;;;10343260;28;20057;-84
2023/06/23 16:21:05;;;;;;;3.42;2.95;;;;;;;;;;10342972;28;20077;-88
2023/06/23 17:23:38;;;;;;;6.57;3.53;;;;;;;;;;10348652;28;20038;-89
2023/06/23 18:03:22;;;;;;;3.30;3.00;;;;;;;;;;10383755;22;20057;-86
2023/06/23 18:26:28;;;;;;;3.67;3.38;;;;;;;;;;10216942;29;20402;-85
2023/06/23 18:31:50;;;;;;;;;;;;;;;;;;10275069;28;20073;-85
2023/06/23 18:37:16;;;;;;;4.40;4.00;;;;;;;;;;10257261;29;19945;-85
2023/06/23 18:42:17;;;;;;;4.22;3.15;;;;;;;;;;10301375;28;20443;-85
2023/06/23 18:47:32;;;;;;;4.75;3.70;;;;;;;;;;10325360;28;20063;-85
2023/06/23 18:52:35;;;;;;;4.13;3.53;;;;;;;;;;10322929;28;20198;-85
2023/06/23 18:57:48;;;;;;;3.70;3.20;;;;;;;;;;10338238;28;20052;-84
2023/06/23 19:02:50;;;;;;;4.97;4.10;;;;;;;;;;10434642;28;20044;-86
2023/06/23 19:08:00;;;;;;;3.83;3.22;;;;;;;;;;10431805;28;20024;-85
2023/06/23 19:13:08;;;;;;;3.67;2.88;;;;;;;;;;10426638;28;20032;-85
